Terminal Aerodrome Forecast
Issued by NWS

Home | Current Version | Previous Version | Graphics & Text | Print | Product List | Glossary On
Versions: 1 2 3 4 5 6 7 8 9 10 11 12 13 14 15 16 17 18 19
000
FTUS43 KTOP 251133
TAFFOE
TAF
KFOE 251133Z 2512/2612 VRB03KT P6SM SKC
     FM251400 16011KT P6SM SKC
     FM251700 16013G21KT P6SM FEW250
     FM260100 14007KT P6SM BKN130=

USA.gov is the U.S. government's official web portal to all federal, state and local government web resources and services.